createdAt,value
2022-08-24T00:00:21.014Z,92.30
2022-08-24T00:02:48.794Z,92.40
2022-08-24T00:05:16.548Z,92.50
2022-08-24T00:07:43.547Z,92.60
2022-08-24T00:10:11.668Z,92.80
2022-08-24T00:12:38.593Z,92.80
2022-08-24T00:15:07.626Z,92.90
2022-08-24T00:17:34.405Z,93.00
2022-08-24T00:20:02.680Z,93.00
2022-08-24T00:22:29.577Z,93.20
2022-08-24T00:24:57.037Z,93.30
2022-08-24T00:27:24.466Z,93.40
2022-08-24T00:29:51.322Z,93.50
2022-08-24T00:32:18.123Z,93.60
2022-08-24T00:34:50.073Z,93.70
2022-08-24T00:37:28.420Z,93.80
2022-08-24T00:39:56.106Z,93.90
2022-08-24T00:42:24.095Z,94.10
2022-08-24T00:44:51.965Z,94.20
2022-08-24T00:47:25.197Z,94.50
2022-08-24T00:49:54.689Z,94.60
2022-08-24T00:52:36.877Z,94.80
2022-08-24T00:55:20.871Z,95.00
2022-08-24T00:57:51.468Z,95.20
2022-08-24T01:00:21.998Z,95.40
2022-08-24T01:02:51.698Z,95.50
2022-08-24T01:05:19.408Z,95.60
2022-08-24T01:07:50.741Z,95.70
2022-08-24T01:10:25.250Z,95.90
2022-08-24T01:13:00.532Z,96.00
2022-08-24T01:15:30.044Z,96.20
2022-08-24T01:18:15.969Z,96.40
2022-08-24T01:20:45.286Z,96.50
2022-08-24T01:23:36.614Z,96.60
2022-08-24T01:26:05.390Z,96.90
2022-08-24T01:28:33.285Z,97.10
2022-08-24T01:31:03.331Z,97.30
2022-08-24T01:33:31.939Z,97.50
2022-08-24T01:36:05.684Z,97.70
2022-08-24T01:38:33.823Z,97.90
2022-08-24T01:41:02.550Z,98.20
2022-08-24T01:43:29.833Z,98.60
2022-08-24T01:45:57.936Z,98.70
2022-08-24T01:48:24.896Z,98.90
2022-08-24T01:50:52.601Z,99.20
2022-08-24T01:53:20.618Z,99.40
2022-08-24T01:55:47.608Z,99.70
2022-08-24T01:58:14.697Z,99.80
2022-08-24T02:00:41.720Z,99.90
2022-08-24T02:03:08.643Z,99.90
2022-08-24T02:05:36.478Z,99.90
2022-08-24T02:08:03.736Z,99.90
2022-08-24T02:10:31.190Z,99.90
2022-08-24T02:12:58.549Z,99.90
2022-08-24T02:15:31.517Z,99.90
2022-08-24T02:17:58.712Z,99.90
2022-08-24T02:20:26.025Z,99.90
2022-08-24T02:22:53.477Z,99.90
2022-08-24T02:25:21.172Z,99.90
2022-08-24T02:27:48.165Z,99.90
2022-08-24T02:30:15.498Z,99.90
2022-08-24T02:32:42.493Z,99.90
2022-08-24T02:35:10.347Z,99.90
2022-08-24T02:37:43.229Z,99.90
2022-08-24T02:40:12.485Z,99.90
2022-08-24T02:42:39.887Z,99.90
2022-08-24T02:45:08.153Z,99.90
2022-08-24T02:47:39.147Z,99.90
2022-08-24T02:50:10.340Z,99.90
2022-08-24T02:52:39.453Z,99.90
2022-08-24T02:55:08.523Z,99.90
2022-08-24T02:57:35.479Z,99.90
2022-08-24T03:00:10.420Z,99.90
2022-08-24T03:02:38.291Z,99.90
2022-08-24T03:05:06.165Z,99.90
2022-08-24T03:07:33.406Z,99.90
2022-08-24T03:10:00.365Z,99.90
2022-08-24T03:12:27.402Z,99.90
2022-08-24T03:14:55.072Z,99.90
2022-08-24T03:17:24.039Z,99.90
2022-08-24T03:19:51.307Z,99.90
2022-08-24T03:22:18.965Z,99.90
2022-08-24T03:24:46.273Z,99.90
2022-08-24T03:27:14.187Z,99.90
2022-08-24T03:29:41.617Z,99.90
2022-08-24T03:32:08.867Z,99.90
2022-08-24T03:34:36.274Z,99.90
2022-08-24T03:37:03.378Z,99.90
2022-08-24T03:39:30.326Z,99.90
2022-08-24T03:41:57.310Z,99.90
2022-08-24T03:44:25.844Z,99.90
2022-08-24T03:46:53.353Z,99.90
2022-08-24T03:49:20.401Z,99.90
2022-08-24T03:51:47.312Z,99.90
2022-08-24T03:54:14.508Z,99.90
2022-08-24T03:56:41.740Z,99.90
2022-08-24T03:59:10.802Z,99.90
2022-08-24T04:01:38.575Z,99.90
2022-08-24T04:04:05.999Z,99.90
2022-08-24T04:06:32.957Z,99.90
2022-08-24T04:08:59.886Z,99.90
2022-08-24T04:11:28.263Z,99.90
2022-08-24T04:13:57.026Z,99.90
2022-08-24T04:16:25.039Z,99.90
2022-08-24T04:18:52.054Z,99.90
2022-08-24T04:21:21.522Z,99.90
2022-08-24T04:23:48.766Z,99.90
2022-08-24T04:26:25.699Z,99.90
2022-08-24T04:29:08.135Z,99.90
2022-08-24T04:31:36.980Z,99.90
2022-08-24T04:34:04.141Z,99.90
2022-08-24T04:36:32.528Z,99.90
2022-08-24T04:39:01.007Z,99.90
2022-08-24T04:41:31.477Z,99.90
2022-08-24T04:43:59.584Z,99.90
2022-08-24T04:46:26.879Z,99.90
2022-08-24T04:48:53.907Z,99.90
2022-08-24T04:51:21.365Z,99.90
2022-08-24T04:53:49.125Z,99.90
2022-08-24T04:56:18.428Z,99.90
2022-08-24T04:58:47.328Z,99.90
2022-08-24T05:01:16.864Z,99.90
2022-08-24T05:03:45.815Z,99.90
2022-08-24T05:06:15.017Z,99.90
2022-08-24T05:08:42.515Z,99.90
2022-08-24T05:11:09.926Z,99.90
2022-08-24T05:13:37.557Z,99.90
2022-08-24T05:16:09.827Z,99.90
2022-08-24T05:18:37.922Z,99.90
2022-08-24T05:21:09.190Z,99.90
2022-08-24T05:23:37.033Z,99.90
2022-08-24T05:26:08.894Z,99.90
2022-08-24T05:28:36.451Z,99.90
2022-08-24T05:31:14.816Z,99.90
2022-08-24T05:33:42.237Z,99.90
2022-08-24T05:36:17.818Z,99.90
2022-08-24T05:38:44.925Z,99.90
2022-08-24T05:41:11.825Z,99.90
2022-08-24T05:43:39.541Z,99.90
2022-08-24T05:46:06.597Z,99.90
2022-08-24T05:48:35.535Z,99.90
2022-08-24T05:51:03.261Z,99.90
2022-08-24T05:53:31.584Z,99.90
2022-08-24T05:56:06.377Z,99.90
2022-08-24T05:58:33.158Z,99.90
2022-08-24T06:01:05.459Z,99.90
2022-08-24T06:03:32.251Z,99.90
2022-08-24T06:05:59.023Z,99.90
2022-08-24T06:08:26.052Z,99.90
2022-08-24T06:10:52.824Z,99.90
2022-08-24T06:13:19.719Z,99.90
2022-08-24T06:16:04.812Z,99.90
2022-08-24T06:18:35.395Z,99.90
2022-08-24T06:21:08.985Z,99.90
2022-08-24T06:23:36.708Z,99.90
2022-08-24T06:26:23.544Z,99.90
2022-08-24T06:28:50.807Z,99.90
2022-08-24T06:31:18.320Z,99.90
2022-08-24T06:33:45.189Z,99.90
2022-08-24T06:36:12.280Z,99.90
2022-08-24T06:38:39.577Z,99.90
2022-08-24T06:41:07.432Z,99.90
2022-08-24T06:43:34.588Z,99.90
2022-08-24T06:46:01.705Z,99.90
2022-08-24T06:48:31.080Z,99.90
2022-08-24T06:50:58.442Z,99.90
2022-08-24T06:53:26.740Z,99.90
2022-08-24T06:55:57.432Z,99.90
2022-08-24T06:58:25.957Z,99.90
2022-08-24T07:01:01.230Z,99.90
2022-08-24T07:03:28.201Z,99.90
2022-08-24T07:05:58.656Z,99.90
2022-08-24T07:08:28.611Z,99.90
2022-08-24T07:10:56.086Z,99.90
2022-08-24T07:13:23.033Z,99.90
2022-08-24T07:15:51.311Z,99.90
2022-08-24T07:18:19.691Z,99.90
2022-08-24T07:20:46.890Z,99.90
2022-08-24T07:23:14.977Z,99.90
2022-08-24T07:25:46.247Z,99.90
2022-08-24T07:28:16.156Z,99.90
2022-08-24T07:30:44.172Z,99.90
2022-08-24T07:33:11.476Z,99.90
2022-08-24T07:35:38.925Z,99.90
2022-08-24T07:38:06.435Z,99.90
2022-08-24T07:40:48.755Z,99.90
2022-08-24T07:43:21.088Z,99.90
2022-08-24T07:45:49.605Z,99.90
2022-08-24T07:48:16.833Z,99.90
2022-08-24T07:50:43.982Z,99.90
2022-08-24T07:53:14.936Z,99.90
2022-08-24T07:55:46.255Z,99.90
2022-08-24T07:58:19.849Z,99.90
2022-08-24T08:00:47.879Z,99.90
2022-08-24T08:03:14.833Z,99.90
2022-08-24T08:05:41.823Z,99.90
2022-08-24T08:08:08.863Z,99.90
2022-08-24T08:10:38.754Z,99.90
2022-08-24T08:13:05.841Z,99.90
2022-08-24T08:15:32.807Z,99.90
2022-08-24T08:17:59.921Z,99.90
2022-08-24T08:20:26.902Z,99.90
2022-08-24T08:23:12.474Z,99.90
2022-08-24T08:25:39.347Z,99.90
2022-08-24T08:28:25.435Z,99.90
2022-08-24T08:30:54.010Z,99.90
2022-08-24T08:33:23.595Z,99.90
2022-08-24T08:35:50.991Z,99.90
2022-08-24T08:38:17.966Z,99.90
2022-08-24T08:40:45.200Z,99.90
2022-08-24T08:43:49.823Z,99.90
2022-08-24T08:46:55.474Z,99.90
2022-08-24T08:49:40.687Z,99.90
2022-08-24T08:52:13.425Z,99.90
2022-08-24T08:54:43.863Z,99.90
2022-08-24T08:57:32.617Z,99.90
2022-08-24T09:00:03.009Z,99.90
2022-08-24T09:03:07.480Z,99.90
2022-08-24T09:05:47.596Z,99.90
2022-08-24T09:08:36.598Z,99.90
2022-08-24T09:11:16.170Z,99.90
2022-08-24T09:13:57.081Z,99.90
2022-08-24T09:16:31.584Z,99.90
2022-08-24T09:19:40.209Z,99.90
2022-08-24T09:22:19.214Z,99.90
2022-08-24T09:24:55.374Z,99.90
2022-08-24T09:27:40.347Z,99.90
2022-08-24T09:30:18.544Z,99.90
2022-08-24T09:33:10.414Z,99.90
2022-08-24T09:36:15.332Z,99.90
2022-08-24T09:39:00.545Z,99.90
2022-08-24T09:41:55.398Z,99.90
2022-08-24T09:44:35.793Z,99.90
2022-08-24T09:47:38.348Z,99.90
2022-08-24T09:50:07.935Z,99.90
2022-08-24T09:52:56.577Z,99.90
2022-08-24T09:55:38.862Z,99.90
2022-08-24T09:58:35.691Z,99.90
2022-08-24T10:01:44.148Z,99.90
2022-08-24T10:04:47.796Z,99.90
2022-08-24T10:07:17.991Z,99.90
2022-08-24T10:10:22.021Z,99.90
2022-08-24T10:13:04.277Z,99.90
2022-08-24T10:15:39.102Z,99.90
2022-08-24T10:18:15.390Z,99.90
2022-08-24T10:21:19.224Z,99.90
2022-08-24T10:24:22.362Z,99.90
2022-08-24T10:26:50.807Z,99.90
2022-08-24T10:29:23.550Z,99.90
2022-08-24T10:32:28.370Z,99.90
2022-08-24T10:35:10.384Z,99.90
2022-08-24T10:38:40.939Z,99.90
2022-08-24T10:41:46.781Z,99.90
2022-08-24T10:44:41.162Z,99.90
2022-08-24T10:47:29.213Z,99.90
2022-08-24T10:50:02.311Z,99.20
2022-08-24T10:52:56.003Z,99.50
2022-08-24T10:55:26.902Z,99.70
2022-08-24T10:58:09.858Z,99.60
2022-08-24T11:00:37.315Z,99.40
2022-08-24T11:03:19.806Z,98.70
2022-08-24T11:05:55.339Z,97.90
2022-08-24T11:08:27.873Z,97.00
2022-08-24T11:11:09.505Z,96.90
2022-08-24T11:13:37.557Z,96.50
2022-08-24T11:16:05.796Z,96.20
2022-08-24T11:18:49.458Z,96.10
2022-08-24T11:21:53.039Z,95.80
2022-08-24T11:24:24.008Z,95.60
2022-08-24T11:27:15.940Z,95.40
2022-08-24T11:29:52.136Z,94.40
2022-08-24T11:33:08.644Z,93.60
2022-08-24T11:35:42.334Z,93.10
2022-08-24T11:38:16.458Z,92.80
2022-08-24T11:41:20.581Z,92.60
2022-08-24T11:43:51.974Z,92.00
2022-08-24T11:46:26.188Z,91.60
2022-08-24T11:48:53.445Z,90.70
2022-08-24T11:51:32.906Z,90.50
2022-08-24T11:54:24.587Z,90.00
2022-08-24T11:57:04.275Z,89.10
2022-08-24T12:00:13.999Z,88.30
2022-08-24T12:02:56.469Z,87.30
2022-08-24T12:05:45.520Z,86.30
2022-08-24T12:08:30.768Z,86.20
2022-08-24T12:11:42.828Z,85.90
2022-08-24T12:14:16.619Z,85.70
2022-08-24T12:16:55.899Z,84.00
2022-08-24T12:19:35.633Z,83.40
2022-08-24T12:22:05.127Z,82.00
2022-08-24T12:24:35.805Z,81.00
2022-08-24T12:27:07.438Z,80.90
2022-08-24T12:29:37.554Z,80.70
2022-08-24T12:32:10.950Z,79.90
2022-08-24T12:35:04.854Z,78.30
2022-08-24T12:37:39.390Z,78.20
2022-08-24T12:40:29.323Z,77.30
2022-08-24T12:43:06.792Z,76.30
2022-08-24T12:45:34.862Z,75.50
2022-08-24T12:48:10.166Z,75.20
2022-08-24T12:50:57.991Z,73.80
2022-08-24T12:53:47.711Z,74.20
2022-08-24T12:56:33.385Z,73.60
2022-08-24T12:59:17.581Z,73.10
2022-08-24T13:01:57.362Z,71.60
2022-08-24T13:04:33.054Z,69.60
2022-08-24T13:07:30.620Z,69.80
2022-08-24T13:10:00.471Z,68.40
2022-08-24T13:12:43.549Z,67.80
2022-08-24T13:15:22.652Z,67.90
2022-08-24T13:18:00.249Z,67.90
2022-08-24T13:20:36.259Z,68.10
2022-08-24T13:23:16.101Z,67.70
2022-08-24T13:25:56.364Z,66.90
2022-08-24T13:28:23.359Z,66.80
2022-08-24T13:31:02.957Z,66.30
2022-08-24T13:33:36.230Z,65.80
2022-08-24T13:36:31.322Z,65.40
2022-08-24T13:39:32.778Z,65.40
2022-08-24T13:42:19.549Z,65.50
2022-08-24T13:44:59.572Z,66.30
2022-08-24T13:48:10.417Z,66.30
2022-08-24T13:50:49.356Z,67.00
2022-08-24T13:53:48.791Z,66.70
2022-08-24T13:56:32.035Z,67.10
2022-08-24T13:59:39.788Z,67.10
2022-08-24T14:02:21.375Z,66.90
2022-08-24T14:05:09.137Z,70.60
2022-08-24T14:07:57.342Z,66.60
2022-08-24T14:10:44.629Z,66.80
2022-08-24T14:13:47.780Z,67.20
2022-08-24T14:17:03.754Z,67.70
2022-08-24T14:19:39.763Z,67.70
2022-08-24T14:22:41.661Z,67.80
2022-08-24T14:25:22.798Z,68.20
2022-08-24T14:27:52.182Z,68.20
2022-08-24T14:30:19.430Z,68.20
2022-08-24T14:33:21.963Z,68.50
2022-08-24T14:35:59.444Z,68.50
2022-08-24T14:39:02.902Z,68.60
2022-08-24T14:41:41.014Z,68.80
2022-08-24T14:44:08.057Z,69.10
2022-08-24T14:46:52.159Z,69.20
2022-08-24T14:49:46.895Z,69.00
2022-08-24T14:52:19.321Z,69.10
2022-08-24T14:55:20.214Z,68.70
2022-08-24T14:57:50.127Z,68.20
2022-08-24T15:00:25.678Z,68.10
2022-08-24T15:02:55.609Z,68.20
2022-08-24T15:06:25.861Z,68.10
2022-08-24T15:08:52.473Z,67.80
2022-08-24T15:11:24.558Z,67.60
2022-08-24T15:14:05.415Z,67.50
2022-08-24T15:16:38.564Z,67.70
2022-08-24T15:19:27.514Z,67.70
2022-08-24T15:22:01.723Z,67.20
2022-08-24T15:24:57.316Z,67.30
2022-08-24T15:27:27.024Z,67.50
2022-08-24T15:29:56.826Z,67.30
2022-08-24T15:32:28.281Z,67.30
2022-08-24T15:34:58.358Z,67.10
2022-08-24T15:37:35.971Z,67.10
2022-08-24T15:40:14.954Z,67.20
2022-08-24T15:42:42.065Z,68.00
2022-08-24T15:45:09.439Z,67.50
2022-08-24T15:47:38.492Z,66.80
2022-08-24T15:50:40.897Z,66.70
2022-08-24T15:53:33.567Z,66.60
2022-08-24T15:56:14.699Z,66.50
2022-08-24T15:58:41.552Z,66.20
2022-08-24T16:01:30.184Z,66.20
2022-08-24T16:04:02.691Z,66.50
2022-08-24T16:06:32.603Z,66.50
2022-08-24T16:09:06.722Z,66.70
2022-08-24T16:11:42.815Z,67.20
2022-08-24T16:14:28.653Z,67.20
2022-08-24T16:16:56.807Z,66.90
2022-08-24T16:19:33.860Z,67.20
2022-08-24T16:22:06.175Z,67.90
2022-08-24T16:24:42.487Z,68.20
2022-08-24T16:27:19.340Z,68.60
2022-08-24T16:29:51.096Z,68.40
2022-08-24T16:32:38.420Z,68.40
2022-08-24T16:35:12.159Z,68.70
2022-08-24T16:37:39.879Z,69.10
2022-08-24T16:40:08.587Z,69.40
2022-08-24T16:42:35.935Z,69.80
2022-08-24T16:45:05.455Z,70.00
2022-08-24T16:47:32.680Z,70.10
2022-08-24T16:49:59.579Z,70.30
2022-08-24T16:52:26.475Z,70.60
2022-08-24T16:54:55.672Z,70.80
2022-08-24T16:57:24.564Z,71.10
2022-08-24T16:59:52.258Z,71.30
2022-08-24T17:02:20.319Z,71.40
2022-08-24T17:04:47.551Z,71.60
2022-08-24T17:07:20.501Z,72.10
2022-08-24T17:09:47.758Z,72.30
2022-08-24T17:12:14.966Z,72.40
2022-08-24T17:14:42.915Z,72.50
2022-08-24T17:17:12.421Z,72.80
2022-08-24T17:19:39.552Z,72.90
2022-08-24T17:22:14.269Z,72.80
2022-08-24T17:24:43.773Z,73.10
2022-08-24T17:27:10.657Z,73.20
2022-08-24T17:29:37.884Z,73.30
2022-08-24T17:32:05.422Z,73.20
2022-08-24T17:34:32.470Z,73.20
2022-08-24T17:36:59.454Z,73.20
2022-08-24T17:39:26.331Z,73.40
2022-08-24T17:41:54.434Z,73.30
2022-08-24T17:44:25.061Z,74.00
2022-08-24T17:46:53.646Z,73.80
2022-08-24T17:49:21.114Z,74.10
2022-08-24T17:51:49.260Z,74.00
2022-08-24T17:54:17.185Z,74.00
2022-08-24T17:56:46.725Z,74.20
2022-08-24T17:59:20.401Z,74.30
2022-08-24T18:01:48.128Z,74.50
2022-08-24T18:04:15.154Z,74.70
2022-08-24T18:06:45.220Z,74.80
2022-08-24T18:09:19.130Z,74.90
2022-08-24T18:11:45.942Z,75.10
2022-08-24T18:14:13.071Z,75.50
2022-08-24T18:16:40.516Z,75.60
2022-08-24T18:19:07.556Z,75.70
2022-08-24T18:21:34.899Z,76.10
2022-08-24T18:24:02.225Z,76.20
2022-08-24T18:26:29.405Z,76.60
2022-08-24T18:28:58.263Z,76.70
2022-08-24T18:31:27.423Z,76.90
2022-08-24T18:33:54.619Z,77.10
2022-08-24T18:36:21.636Z,77.30
2022-08-24T18:38:48.559Z,77.60
2022-08-24T18:41:15.557Z,77.80
2022-08-24T18:43:42.468Z,78.00
2022-08-24T18:46:09.677Z,78.30
2022-08-24T18:48:37.078Z,78.50
2022-08-24T18:51:04.180Z,78.80
2022-08-24T18:53:31.070Z,79.00
2022-08-24T18:56:00.635Z,79.10
2022-08-24T18:58:32.219Z,79.40
2022-08-24T19:00:59.170Z,79.80
2022-08-24T19:03:26.553Z,80.10
2022-08-24T19:05:53.843Z,80.50
2022-08-24T19:08:21.100Z,80.90
2022-08-24T19:10:48.042Z,81.50
2022-08-24T19:13:16.174Z,81.80
2022-08-24T19:15:46.572Z,82.40
2022-08-24T19:18:18.794Z,82.90
2022-08-24T19:20:52.476Z,83.60
2022-08-24T19:23:31.435Z,84.30
2022-08-24T19:25:58.594Z,84.90
2022-08-24T19:28:30.139Z,85.60
2022-08-24T19:30:58.556Z,86.20
2022-08-24T19:33:28.288Z,86.60
2022-08-24T19:35:55.506Z,87.60
2022-08-24T19:38:25.821Z,88.30
2022-08-24T19:40:53.410Z,89.00
2022-08-24T19:43:20.249Z,89.60
2022-08-24T19:46:02.483Z,90.10
2022-08-24T19:48:31.503Z,90.30
2022-08-24T19:51:00.006Z,90.80
2022-08-24T19:53:26.972Z,91.40
2022-08-24T19:55:53.882Z,91.50
2022-08-24T19:58:24.344Z,91.90
2022-08-24T20:01:02.184Z,92.30
2022-08-24T20:03:29.528Z,92.70
2022-08-24T20:05:57.179Z,93.20
2022-08-24T20:08:24.606Z,93.60
2022-08-24T20:10:55.988Z,94.00
2022-08-24T20:13:22.800Z,94.40
2022-08-24T20:15:50.041Z,94.80
2022-08-24T20:18:17.351Z,95.20
2022-08-24T20:20:44.589Z,95.50
2022-08-24T20:23:13.656Z,96.00
2022-08-24T20:25:41.197Z,96.40
2022-08-24T20:30:56.016Z,97.00
2022-08-24T20:33:24.808Z,97.40
2022-08-24T20:35:51.930Z,97.90
2022-08-24T20:38:20.114Z,98.30
2022-08-24T20:40:47.436Z,98.70
2022-08-24T20:43:14.651Z,99.10
2022-08-24T20:45:41.762Z,99.60
2022-08-24T20:48:12.257Z,99.90
2022-08-24T20:50:41.979Z,99.90
2022-08-24T20:53:11.416Z,99.90
2022-08-24T20:55:39.729Z,99.90
2022-08-24T20:58:06.725Z,99.90
2022-08-24T21:00:34.397Z,99.90
2022-08-24T21:03:01.412Z,99.90
2022-08-24T21:05:28.588Z,99.90
2022-08-24T21:07:57.988Z,99.90
2022-08-24T21:10:27.157Z,99.90
2022-08-24T21:12:54.676Z,99.90
2022-08-24T21:15:23.428Z,99.90
2022-08-24T21:17:50.722Z,99.90
2022-08-24T21:20:18.758Z,99.90
2022-08-24T21:22:46.310Z,99.90
2022-08-24T21:25:14.574Z,99.90
2022-08-24T21:27:42.861Z,99.90
2022-08-24T21:30:13.154Z,99.90
2022-08-24T21:32:58.452Z,99.90
2022-08-24T21:35:25.627Z,99.90
2022-08-24T21:37:53.240Z,99.90
2022-08-24T21:40:21.887Z,99.90
2022-08-24T21:42:52.640Z,99.90
2022-08-24T21:45:19.723Z,99.90
2022-08-24T21:47:46.707Z,99.90
2022-08-24T21:50:17.824Z,99.90
2022-08-24T21:52:44.825Z,99.90
2022-08-24T21:55:15.157Z,99.90
2022-08-24T21:57:42.607Z,99.90
2022-08-24T22:00:13.741Z,99.90
2022-08-24T22:02:44.137Z,99.90
2022-08-24T22:05:11.421Z,99.90
2022-08-24T22:07:38.403Z,99.90
2022-08-24T22:10:07.479Z,99.90
2022-08-24T22:12:35.801Z,99.90
2022-08-24T22:15:05.046Z,99.90
2022-08-24T22:17:31.990Z,99.90
2022-08-24T22:19:59.064Z,99.90
2022-08-24T22:22:26.680Z,99.90
2022-08-24T22:24:53.723Z,99.90
2022-08-24T22:27:21.004Z,99.90
2022-08-24T22:29:52.959Z,99.90
2022-08-24T22:32:20.122Z,99.90
2022-08-24T22:34:47.074Z,99.90
2022-08-24T22:37:14.019Z,99.90
2022-08-24T22:39:41.135Z,99.90
2022-08-24T22:42:08.408Z,99.90
2022-08-24T22:44:36.076Z,99.90
2022-08-24T22:47:12.951Z,99.90
2022-08-24T22:49:45.514Z,99.90
2022-08-24T22:52:13.990Z,99.90
2022-08-24T22:54:41.062Z,99.90
2022-08-24T22:57:08.394Z,99.90
2022-08-24T22:59:37.924Z,99.90
2022-08-24T23:02:11.332Z,99.90
2022-08-24T23:04:40.596Z,99.90
2022-08-24T23:07:08.115Z,99.90
2022-08-24T23:09:44.102Z,99.90
2022-08-24T23:12:17.954Z,99.90
2022-08-24T23:14:44.928Z,99.90
2022-08-24T23:17:12.097Z,99.90
2022-08-24T23:19:57.599Z,99.90
2022-08-24T23:22:25.739Z,99.90
2022-08-24T23:24:52.970Z,99.90
2022-08-24T23:27:20.258Z,99.90
2022-08-24T23:29:48.605Z,99.90
2022-08-24T23:32:17.956Z,99.90
2022-08-24T23:34:48.338Z,99.90
2022-08-24T23:37:16.538Z,99.90
2022-08-24T23:39:44.027Z,99.90
2022-08-24T23:42:11.201Z,99.90
2022-08-24T23:44:39.126Z,99.90
2022-08-24T23:47:06.681Z,99.90
2022-08-24T23:49:33.876Z,99.90
2022-08-24T23:52:00.814Z,99.90
2022-08-24T23:54:28.318Z,99.90
2022-08-24T23:56:55.406Z,99.90
2022-08-24T23:59:25.034Z,99.90
